Aviation Digital Data Service (ADDS)

Output produced by METARs form (0243 UTC 24 July 2017)
found at http://www.aviationweather.gov/adds/metars/
 
EHKD 240227Z AUTO 19005KT 9999 SCT019 SCT022 BKN083 13/12 Q1008 WHT
TAF EHKD 232257Z 2401/2413 18008KT CAVOK 
     TEMPO 2401/2413 SCT025CB 
     PROB30 
     TEMPO 2401/2413 24012G25KT 3000 TSRA SCT020CB BKN030 
     BECMG 2406/2408 10006KT 
     BECMG 2411/2413 03010KT
       
EHDL 240225Z AUTO 19004KT 140V210 9999 DZ OVC033 14/13 Q1009 BLU
EHGG 240225Z AUTO 15004KT 9999 DZRA FEW015CB SCT043 13/13 Q1009
TAF EHGG 232308Z 2400/2506 16005KT 9999 BKN045 
     TEMPO 2400/2404 6000 SHRA SCT020CB BKN030 
     PROB30 2400/2405 4000 BR 
     PROB30 
     TEMPO 2400/2404 18012G22KT 2500 TSRA BKN020CB BKN030 
     TEMPO 2404/2504 6000 SHRA RA FEW015CB BKN020 
     PROB30 
     TEMPO 2412/2418 01012G22KT 4000 TSRA SCT020CB BKN030 
     BECMG 2504/2506 34010KT
       
EHEH 240235Z AUTO 17005KT 9999 -RA FEW015CB SCT021 BKN063 14/14 Q1009 WHT
TAF EHEH 232321Z 2400/2506 22006KT 9999 CAVOK 
     PROB40 
     TEMPO 2400/2407 VRB03KT 2500 BR MIFG 
     TEMPO 2400/2421 SCT025CB BKN040 
     PROB30 
     TEMPO 2400/2421 22012G25KT 3000 TSRA SCT014 SCT020CB BKN030 
     BECMG 2412/2415 32006KT SCT030 BKN050 
     PROB30 2500/2506 1500 BCFG
       
EHGR 240232Z AUTO 20004KT 9999 SCT013 FEW015CB SCT017 BKN021 13/13 Q1009 GRN
EHLW 240230Z AUTO 18006KT 140V220 9999 -RA FEW003 SCT004 BKN006 BKN015CB 14/14 Q1008 YLO
EHBK 240225Z AUTO 21006KT 9999 DZ NSC 14/13 Q1010
TAF EHBK 232308Z 2400/2506 22005KT CAVOK 
     PROB30 
     TEMPO 2400/2408 6000 RA SHRA BKN015 SCT020CB 
     TEMPO 2408/2424 6000 SHRA SCT020CB BKN030 
     PROB40 
     TEMPO 2409/2418 27012G22KT 2500 TSRA SCT015CB BKN020 
     PROB30 
     TEMPO 2421/2423 4000 BR SCT008 BKN012 
     BECMG 2423/2502 4000 BR SCT003 BKN005 
     PROB30 
     TEMPO 2500/2506 RA SHRA FEW015CB
       
EHRD 240225Z AUTO 20004KT 170V230 9999 -RADZ FEW015CB 14/13 Q1009 NOSIG
TAF EHRD 232307Z 2400/2506 19007KT 9999 SCT025 
     TEMPO 2400/2418 6000 SHRA SCT025CB 
     PROB30 
     TEMPO 2400/2408 24010G20KT 4000 TSRA SCT020CB BKN030 
     BECMG 2411/2414 33010KT 
     BECMG 2418/2421 35007KT 
     PROB30 
     TEMPO 2418/2505 7000 SHRA RA SCT025CB
       
EHAM 240225Z 18005KT 9999 FEW025 13/13 Q1009 NOSIG
TAF EHAM 232307Z 2400/2506 19007KT 9999 SCT025 
     TEMPO 2400/2418 6000 SHRA SCT025CB 
     PROB30 
     TEMPO 2400/2408 24010G20KT 4000 TSRA SCT020CB BKN030 
     BECMG 2411/2414 33010KT 
     BECMG 2418/2421 35007KT 
     PROB30 
     TEMPO 2418/2505 7000 SHRA RA SCT025CB
       
EHVK 240232Z AUTO VRB01KT 6000 SHRA FEW015CB BKN019 OVC036 14/14 Q1009 WHT
TAF EHVK 240031Z 2401/2413 22006KT 9999 CAVOK 
     PROB40 
     TEMPO 2401/2407 VRB03KT 2500 BR MIFG 
     TEMPO 2401/2413 SCT025CB BKN040 
     PROB30 
     TEMPO 2401/2413 22012G25KT 3000 TSRA SCT014 SCT020CB BKN030
       
EHWO 240236Z AUTO 22003KT 9999 BKN008 BKN011 BKN018 14/13 Q1009 GRN